createdAt,value
2022-11-30T00:01:13.579Z,59.75
2022-11-30T00:03:40.705Z,46.88
2022-11-30T00:06:10.227Z,40.88
2022-11-30T00:08:37.341Z,41.05
2022-11-30T00:11:10.253Z,34.20
2022-11-30T00:13:37.283Z,36.67
2022-11-30T00:16:04.751Z,32.55
2022-11-30T00:18:31.548Z,32.78
2022-11-30T00:21:06.429Z,29.63
2022-11-30T00:23:38.227Z,28.42
2022-11-30T00:26:07.236Z,30.17
2022-11-30T00:28:35.440Z,26.27
2022-11-30T00:31:08.282Z,25.40
2022-11-30T00:33:36.787Z,24.48
2022-11-30T00:36:06.783Z,23.50
2022-11-30T00:38:34.182Z,21.83
2022-11-30T00:41:01.520Z,23.02
2022-11-30T00:43:28.888Z,19.88
2022-11-30T00:45:55.783Z,21.92
2022-11-30T00:48:22.775Z,20.55
2022-11-30T00:50:51.099Z,25.20
2022-11-30T00:53:19.089Z,18.58
2022-11-30T00:55:46.709Z,17.40
2022-11-30T00:58:14.014Z,17.48
2022-11-30T01:00:41.467Z,17.05
2022-11-30T01:03:08.773Z,18.25
2022-11-30T01:05:35.910Z,16.98
2022-11-30T01:08:04.370Z,30.63
2022-11-30T01:10:31.273Z,50.90
2022-11-30T01:12:58.002Z,55.53
2022-11-30T01:15:24.840Z,53.72
2022-11-30T01:17:51.661Z,59.83
2022-11-30T01:20:18.518Z,60.22
2022-11-30T01:22:45.271Z,64.65
2022-11-30T01:25:12.058Z,61.13
2022-11-30T01:27:38.828Z,64.90
2022-11-30T01:30:06.355Z,75.72
2022-11-30T01:32:33.153Z,62.88
2022-11-30T01:34:59.859Z,62.78
2022-11-30T01:37:29.874Z,66.22
2022-11-30T01:39:56.733Z,61.13
2022-11-30T01:42:23.531Z,66.57
2022-11-30T01:44:58.721Z,70.65
2022-11-30T01:47:41.822Z,71.97
2022-11-30T01:50:28.589Z,67.32
2022-11-30T01:52:57.178Z,76.40
2022-11-30T01:55:32.402Z,79.63
2022-11-30T01:58:16.525Z,81.60
2022-11-30T02:00:46.948Z,69.35
2022-11-30T02:03:39.128Z,75.85
2022-11-30T02:06:06.306Z,74.95
2022-11-30T02:08:33.795Z,76.80
2022-11-30T02:11:05.516Z,80.18
2022-11-30T02:13:59.353Z,71.47
2022-11-30T02:16:40.800Z,67.10
2022-11-30T02:19:13.792Z,69.78
2022-11-30T02:21:43.596Z,54.83
2022-11-30T02:24:29.237Z,70.10
2022-11-30T02:27:05.301Z,64.82
2022-11-30T02:29:38.873Z,65.47
2022-11-30T02:32:05.638Z,63.30
2022-11-30T02:34:35.124Z,86.80
2022-11-30T02:37:03.438Z,63.33
2022-11-30T02:39:30.422Z,65.35
2022-11-30T02:41:57.220Z,60.55
2022-11-30T02:44:25.124Z,55.35
2022-11-30T02:47:00.344Z,58.35
2022-11-30T02:49:43.975Z,58.90
2022-11-30T02:52:11.823Z,59.22
2022-11-30T02:54:38.837Z,57.90
2022-11-30T02:57:05.674Z,51.85
2022-11-30T02:59:32.958Z,54.20
2022-11-30T03:01:59.709Z,67.05
2022-11-30T03:04:26.478Z,62.97
2022-11-30T03:06:53.244Z,57.92
2022-11-30T03:09:19.986Z,59.35
2022-11-30T03:11:46.705Z,71.95
2022-11-30T03:14:13.446Z,75.07
2022-11-30T03:16:40.372Z,67.10
2022-11-30T03:19:07.227Z,68.30
2022-11-30T03:21:33.948Z,63.80
2022-11-30T03:24:00.662Z,66.35
2022-11-30T03:26:27.479Z,68.63
2022-11-30T03:28:54.303Z,59.20
2022-11-30T03:31:21.117Z,61.45
2022-11-30T03:33:47.891Z,62.35
2022-11-30T03:36:14.662Z,72.45
2022-11-30T03:38:41.382Z,64.75
2022-11-30T03:41:12.301Z,63.05
2022-11-30T03:43:39.045Z,60.90
2022-11-30T03:46:06.343Z,57.08
2022-11-30T03:48:33.370Z,53.80
2022-11-30T03:51:00.245Z,54.75
2022-11-30T03:53:27.058Z,56.40
2022-11-30T03:55:56.577Z,66.03
2022-11-30T03:58:24.339Z,59.40
2022-11-30T04:00:59.874Z,70.65
2022-11-30T04:03:26.662Z,75.18
2022-11-30T04:05:53.472Z,68.40
2022-11-30T04:08:20.573Z,65.10
2022-11-30T04:10:48.278Z,60.33
2022-11-30T04:13:14.992Z,66.85
2022-11-30T04:15:41.835Z,65.05
2022-11-30T04:18:08.723Z,62.42
2022-11-30T04:20:40.196Z,68.43
2022-11-30T04:23:07.578Z,68.20
2022-11-30T04:25:34.353Z,65.53
2022-11-30T04:28:01.038Z,65.75
2022-11-30T04:30:27.834Z,61.58
2022-11-30T04:32:54.631Z,66.25
2022-11-30T04:35:21.427Z,63.63
2022-11-30T04:37:48.193Z,64.30
2022-11-30T04:40:14.968Z,51.97
2022-11-30T04:42:41.794Z,55.90
2022-11-30T04:45:09.046Z,56.90
2022-11-30T04:47:35.788Z,53.40
2022-11-30T04:50:02.756Z,46.92
2022-11-30T04:52:29.490Z,56.55
2022-11-30T04:54:57.001Z,51.50
2022-11-30T04:57:24.609Z,50.67
2022-11-30T04:59:51.803Z,48.28
2022-11-30T05:02:18.912Z,45.53
2022-11-30T05:04:45.987Z,49.63
2022-11-30T05:07:13.006Z,49.15
2022-11-30T05:09:39.792Z,44.42
2022-11-30T05:12:06.728Z,47.10
2022-11-30T05:14:33.659Z,46.03
2022-11-30T05:17:00.366Z,47.05
2022-11-30T05:19:27.137Z,55.63
2022-11-30T05:21:53.851Z,48.25
2022-11-30T05:24:20.666Z,47.10
2022-11-30T05:26:47.437Z,46.08
2022-11-30T05:29:14.202Z,48.40
2022-11-30T05:31:41.102Z,46.13
2022-11-30T05:34:07.982Z,42.35
2022-11-30T05:36:34.704Z,40.78
2022-11-30T05:39:01.574Z,48.40
2022-11-30T05:41:28.353Z,49.28
2022-11-30T05:43:55.232Z,49.50
2022-11-30T05:46:22.431Z,51.85
2022-11-30T05:48:49.253Z,48.80
2022-11-30T05:51:17.932Z,49.25
2022-11-30T05:53:45.863Z,55.42
2022-11-30T05:56:18.208Z,55.72
2022-11-30T05:58:45.733Z,54.42
2022-11-30T06:01:24.466Z,56.95
2022-11-30T06:03:51.736Z,55.55
2022-11-30T06:06:19.140Z,55.35
2022-11-30T06:08:47.527Z,54.60
2022-11-30T06:11:15.194Z,56.63
2022-11-30T06:13:42.636Z,54.03
2022-11-30T06:16:10.139Z,54.65
2022-11-30T06:18:43.199Z,61.60
2022-11-30T06:21:11.497Z,63.65
2022-11-30T06:23:38.586Z,60.33
2022-11-30T06:26:07.441Z,61.80
2022-11-30T06:28:35.043Z,54.17
2022-11-30T06:31:04.204Z,58.95
2022-11-30T06:33:31.194Z,62.67
2022-11-30T06:35:58.068Z,66.70
2022-11-30T06:38:26.014Z,62.97
2022-11-30T06:40:53.425Z,57.88
2022-11-30T06:43:20.310Z,53.80
2022-11-30T06:45:47.790Z,58.90
2022-11-30T06:48:14.916Z,54.40
2022-11-30T06:50:46.898Z,61.60
2022-11-30T06:53:16.618Z,63.83
2022-11-30T06:55:43.517Z,59.28
2022-11-30T06:58:11.088Z,65.38
2022-11-30T07:00:38.822Z,62.30
2022-11-30T07:03:06.566Z,59.22
2022-11-30T07:05:44.643Z,51.42
2022-11-30T07:08:12.638Z,56.47
2022-11-30T07:10:44.509Z,57.88
2022-11-30T07:13:17.266Z,61.90
2022-11-30T07:15:44.745Z,54.42
2022-11-30T07:18:12.032Z,55.47
2022-11-30T07:20:39.285Z,55.65
2022-11-30T07:23:24.784Z,57.35
2022-11-30T07:28:46.115Z,52.00
2022-11-30T07:31:20.713Z,53.40
2022-11-30T07:33:48.998Z,46.72
2022-11-30T07:36:17.224Z,44.53
2022-11-30T07:38:44.281Z,50.83
2022-11-30T07:41:11.399Z,48.33
2022-11-30T07:43:38.527Z,50.90
2022-11-30T07:46:05.975Z,46.85
2022-11-30T07:48:34.001Z,48.72
2022-11-30T07:51:06.022Z,53.90
2022-11-30T07:53:32.853Z,54.42
2022-11-30T07:56:08.493Z,53.47
2022-11-30T07:58:35.645Z,49.45
2022-11-30T08:01:13.716Z,53.83
2022-11-30T08:03:40.690Z,53.92
2022-11-30T08:06:11.681Z,58.03
2022-11-30T08:08:41.062Z,53.05
2022-11-30T08:11:09.640Z,53.15
2022-11-30T08:13:36.635Z,51.55
2022-11-30T08:16:05.785Z,52.47
2022-11-30T08:18:32.562Z,56.58
2022-11-30T08:21:01.005Z,54.88
2022-11-30T08:23:32.439Z,54.95
2022-11-30T08:26:07.587Z,61.65
2022-11-30T08:31:17.700Z,56.28
2022-11-30T08:33:45.207Z,60.05
2022-11-30T08:36:20.228Z,61.70
2022-11-30T08:38:48.368Z,55.10
2022-11-30T08:41:19.151Z,64.15
2022-11-30T08:43:46.658Z,59.03
2022-11-30T08:46:49.642Z,65.75
2022-11-30T08:49:20.314Z,67.85
2022-11-30T08:52:15.954Z,67.95
2022-11-30T08:54:36.486Z,70.78
2022-11-30T08:57:03.578Z,72.65
2022-11-30T08:59:33.406Z,70.90
2022-11-30T09:02:00.211Z,68.45
2022-11-30T09:04:27.307Z,76.75
2022-11-30T09:06:58.820Z,75.65
2022-11-30T09:09:25.855Z,76.53
2022-11-30T09:11:52.731Z,73.82
2022-11-30T09:14:19.485Z,73.53
2022-11-30T09:16:46.330Z,76.43
2022-11-30T09:19:13.113Z,81.85
2022-11-30T09:21:40.116Z,80.97
2022-11-30T09:24:07.112Z,85.10
2022-11-30T09:26:33.875Z,81.43
2022-11-30T09:29:00.696Z,90.97
2022-11-30T09:31:28.105Z,74.50
2022-11-30T09:33:58.887Z,85.82
2022-11-30T09:36:27.478Z,79.70
2022-11-30T09:38:56.357Z,75.40
2022-11-30T09:41:45.114Z,83.60
2022-11-30T09:44:36.259Z,80.50
2022-11-30T09:47:08.803Z,78.72
2022-11-30T09:49:44.299Z,71.20
2022-11-30T09:52:18.869Z,65.97
2022-11-30T09:54:48.047Z,75.65
2022-11-30T09:57:33.844Z,70.57
2022-11-30T10:02:38.459Z,68.15
2022-11-30T10:05:50.206Z,75.53
2022-11-30T10:08:36.187Z,67.85
2022-11-30T10:11:15.114Z,76.53
2022-11-30T10:14:00.031Z,72.95
2022-11-30T10:16:50.968Z,71.78
2022-11-30T10:19:26.558Z,79.63
2022-11-30T10:22:05.622Z,80.20
2022-11-30T10:24:40.297Z,82.65
2022-11-30T10:27:17.185Z,80.55
2022-11-30T10:29:44.395Z,81.40
2022-11-30T10:32:28.550Z,83.75
2022-11-30T10:35:01.806Z,82.85
2022-11-30T10:37:37.421Z,80.82
2022-11-30T10:40:19.951Z,86.38
2022-11-30T10:42:50.257Z,79.30
2022-11-30T10:45:23.605Z,87.28
2022-11-30T10:48:15.353Z,86.35
2022-11-30T10:50:42.369Z,89.60
2022-11-30T10:53:11.824Z,93.40
2022-11-30T10:55:46.731Z,84.50
2022-11-30T10:58:20.284Z,89.13
2022-11-30T11:00:55.831Z,108.82
2022-11-30T11:03:26.585Z,86.68
2022-11-30T11:06:16.032Z,99.25
2022-11-30T11:08:45.491Z,98.60
2022-11-30T11:11:27.721Z,81.65
2022-11-30T11:14:09.765Z,89.43
2022-11-30T11:16:58.493Z,90.32
2022-11-30T11:19:33.471Z,82.05
2022-11-30T11:22:17.793Z,90.38
2022-11-30T11:24:45.209Z,88.38
2022-11-30T11:27:27.563Z,89.30
2022-11-30T11:30:26.468Z,84.65
2022-11-30T11:33:25.515Z,87.75
2022-11-30T11:36:13.121Z,90.30
2022-11-30T11:38:46.310Z,85.05
2022-11-30T11:41:27.133Z,88.10
2022-11-30T11:44:08.937Z,76.03
2022-11-30T11:46:59.259Z,82.95
2022-11-30T11:49:32.371Z,91.63
2022-11-30T11:52:22.736Z,95.18
2022-11-30T11:55:21.680Z,86.97
2022-11-30T11:58:00.102Z,83.88
2022-11-30T12:00:26.869Z,85.03
2022-11-30T12:03:15.263Z,90.38
2022-11-30T12:05:51.477Z,88.65
2022-11-30T12:08:55.915Z,91.63
2022-11-30T12:11:48.472Z,88.03
2022-11-30T12:14:18.456Z,97.60
2022-11-30T12:17:02.328Z,82.75
2022-11-30T12:19:38.155Z,91.50
2022-11-30T12:22:57.781Z,87.57
2022-11-30T12:25:31.096Z,89.32
2022-11-30T12:28:17.172Z,93.45
2022-11-30T12:30:46.995Z,91.15
2022-11-30T12:33:44.464Z,89.18
2022-11-30T12:36:28.415Z,104.13
2022-11-30T12:39:02.289Z,95.53
2022-11-30T12:41:32.087Z,97.70
2022-11-30T12:44:01.600Z,95.55
2022-11-30T12:46:35.750Z,110.57
2022-11-30T12:49:17.677Z,96.57
2022-11-30T12:51:57.714Z,102.72
2022-11-30T12:54:46.466Z,110.97
2022-11-30T12:57:17.915Z,104.28
2022-11-30T13:00:09.353Z,110.22
2022-11-30T13:02:48.156Z,107.65
2022-11-30T13:05:24.435Z,106.00
2022-11-30T13:08:04.388Z,113.50
2022-11-30T13:10:46.736Z,106.30
2022-11-30T13:13:21.274Z,111.22
2022-11-30T13:15:49.731Z,83.63
2022-11-30T13:18:20.333Z,124.18
2022-11-30T13:20:50.835Z,111.40
2022-11-30T13:23:36.090Z,122.82
2022-11-30T13:26:28.214Z,126.72
2022-11-30T13:29:27.466Z,128.27
2022-11-30T13:31:57.524Z,137.38
2022-11-30T13:34:29.618Z,146.70
2022-11-30T13:37:12.677Z,139.85
2022-11-30T13:39:49.931Z,139.90
2022-11-30T13:42:36.994Z,143.48
2022-11-30T13:45:23.966Z,142.10
2022-11-30T13:47:55.567Z,149.13
2022-11-30T13:50:39.607Z,136.27
2022-11-30T13:53:18.394Z,139.55
2022-11-30T13:55:48.118Z,142.23
2022-11-30T13:58:17.376Z,146.05
2022-11-30T14:01:00.398Z,149.18
2022-11-30T14:03:29.978Z,145.25
2022-11-30T14:06:01.376Z,159.38
2022-11-30T14:08:37.919Z,141.73
2022-11-30T14:11:26.493Z,156.50
2022-11-30T14:13:53.315Z,142.23
2022-11-30T14:16:27.550Z,140.60
2022-11-30T14:18:56.348Z,153.98
2022-11-30T14:21:35.271Z,145.65
2022-11-30T14:24:05.324Z,157.18
2022-11-30T14:26:43.818Z,159.18
2022-11-30T14:29:22.003Z,145.82
2022-11-30T14:31:57.016Z,144.57
2022-11-30T14:34:46.213Z,136.60
2022-11-30T14:37:16.518Z,139.30
2022-11-30T14:39:46.113Z,135.10
2022-11-30T14:42:19.119Z,138.13
2022-11-30T14:44:47.522Z,136.25
2022-11-30T14:47:26.497Z,141.00
2022-11-30T14:49:56.878Z,154.38
2022-11-30T14:52:37.722Z,138.02
2022-11-30T14:55:13.641Z,137.57
2022-11-30T14:58:17.776Z,144.27
2022-11-30T15:00:45.765Z,139.95
2022-11-30T15:03:23.789Z,145.88
2022-11-30T15:05:53.988Z,136.07
2022-11-30T15:08:21.636Z,150.60
2022-11-30T15:10:48.707Z,147.20
2022-11-30T15:13:18.752Z,151.18
2022-11-30T15:15:56.089Z,145.27
2022-11-30T15:18:25.479Z,139.85
2022-11-30T15:21:00.812Z,144.32
2022-11-30T15:23:28.009Z,137.85
2022-11-30T15:26:01.280Z,135.00
2022-11-30T15:28:34.057Z,134.95
2022-11-30T15:31:05.361Z,141.40
2022-11-30T15:33:40.143Z,135.50
2022-11-30T15:36:31.501Z,142.75
2022-11-30T15:38:54.635Z,139.00
2022-11-30T15:41:24.633Z,132.20
2022-11-30T15:43:56.904Z,138.43
2022-11-30T15:46:31.919Z,129.32
2022-11-30T15:51:45.255Z,133.05
2022-11-30T15:54:12.397Z,140.32
2022-11-30T15:56:39.378Z,137.05
2022-11-30T15:59:14.941Z,138.80
2022-11-30T16:02:04.905Z,135.10
2022-11-30T16:04:56.644Z,141.48
2022-11-30T16:07:33.679Z,156.27
2022-11-30T16:10:16.578Z,145.88
2022-11-30T16:12:44.706Z,151.35
2022-11-30T16:15:19.443Z,139.48
2022-11-30T16:17:46.254Z,143.38
2022-11-30T16:20:14.517Z,143.90
2022-11-30T16:22:42.808Z,177.13
2022-11-30T16:25:26.383Z,200.45
2022-11-30T16:27:53.310Z,182.55
2022-11-30T16:30:22.504Z,258.08
2022-11-30T16:32:49.951Z,228.02
2022-11-30T16:35:23.215Z,216.88
2022-11-30T16:37:50.895Z,201.13
2022-11-30T16:40:18.491Z,207.52
2022-11-30T16:42:45.442Z,193.10
2022-11-30T16:45:22.027Z,272.05
2022-11-30T16:47:50.101Z,242.55
2022-11-30T16:50:18.023Z,217.15
2022-11-30T16:52:45.002Z,220.25
2022-11-30T16:55:16.974Z,237.20
2022-11-30T16:57:44.472Z,187.10
2022-11-30T17:00:13.813Z,198.82
2022-11-30T17:02:45.030Z,202.75
2022-11-30T17:05:14.630Z,250.35
2022-11-30T17:07:41.915Z,175.90
2022-11-30T17:10:09.241Z,311.58
2022-11-30T17:12:36.204Z,226.57
2022-11-30T17:15:03.942Z,201.98
2022-11-30T17:17:30.770Z,203.50
2022-11-30T17:19:57.620Z,210.43
2022-11-30T17:22:24.394Z,187.65
2022-11-30T17:24:51.142Z,220.90
2022-11-30T17:27:18.021Z,224.98
2022-11-30T17:29:44.738Z,226.23
2022-11-30T17:32:11.571Z,201.82
2022-11-30T17:34:38.502Z,242.07
2022-11-30T17:37:05.502Z,223.77
2022-11-30T17:39:32.624Z,198.18
2022-11-30T17:41:59.516Z,213.32
2022-11-30T17:44:26.372Z,226.35
2022-11-30T17:46:53.321Z,249.15
2022-11-30T17:49:20.250Z,243.80
2022-11-30T17:51:47.160Z,286.98
2022-11-30T17:54:14.337Z,299.73
2022-11-30T17:56:41.098Z,197.48
2022-11-30T17:59:07.958Z,238.98
2022-11-30T18:01:34.810Z,223.98
2022-11-30T18:04:02.109Z,189.98
2022-11-30T18:06:29.004Z,143.63
2022-11-30T18:08:57.618Z,159.38
2022-11-30T18:11:26.376Z,152.73
2022-11-30T18:13:55.501Z,181.70
2022-11-30T18:16:25.262Z,160.35
2022-11-30T18:18:53.034Z,201.55
2022-11-30T18:21:22.036Z,145.00
2022-11-30T18:23:49.155Z,147.32
2022-11-30T18:26:19.276Z,170.50
2022-11-30T18:28:47.029Z,131.05
2022-11-30T18:31:13.953Z,134.27
2022-11-30T18:33:41.056Z,130.20
2022-11-30T18:36:08.180Z,141.27
2022-11-30T18:38:38.534Z,169.63
2022-11-30T18:41:06.317Z,152.98
2022-11-30T18:43:34.188Z,166.30
2022-11-30T18:46:06.333Z,171.27
2022-11-30T18:48:33.334Z,164.15
2022-11-30T18:51:00.592Z,185.10
2022-11-30T18:53:27.459Z,176.52
2022-11-30T18:55:54.230Z,195.32
2022-11-30T18:58:20.988Z,197.68
2022-11-30T19:00:47.887Z,239.85
2022-11-30T19:03:17.185Z,232.45
2022-11-30T19:05:44.025Z,210.70
2022-11-30T19:08:15.006Z,213.57
2022-11-30T19:10:41.895Z,227.50
2022-11-30T19:13:08.779Z,226.77
2022-11-30T19:15:43.283Z,203.52
2022-11-30T19:18:11.272Z,135.40
2022-11-30T19:20:40.333Z,186.50
2022-11-30T19:23:07.633Z,202.35
2022-11-30T19:25:34.971Z,211.15
2022-11-30T19:28:03.078Z,203.57
2022-11-30T19:30:30.261Z,192.68
2022-11-30T19:32:57.241Z,230.57
2022-11-30T19:35:25.353Z,239.88
2022-11-30T19:37:52.913Z,207.10
2022-11-30T19:40:20.114Z,165.20
2022-11-30T19:42:47.142Z,194.20
2022-11-30T19:45:14.204Z,214.40
2022-11-30T19:47:41.076Z,159.77
2022-11-30T19:50:08.278Z,174.13
2022-11-30T19:52:35.209Z,158.02
2022-11-30T19:55:02.224Z,142.63
2022-11-30T19:57:29.088Z,141.77
2022-11-30T19:59:56.011Z,114.35
2022-11-30T20:02:23.043Z,106.18
2022-11-30T20:04:50.460Z,89.00
2022-11-30T20:07:17.525Z,94.93
2022-11-30T20:09:44.682Z,95.05
2022-11-30T20:12:11.537Z,92.82
2022-11-30T20:14:38.605Z,87.07
2022-11-30T20:17:05.565Z,91.03
2022-11-30T20:19:32.675Z,90.63
2022-11-30T20:22:00.600Z,89.90
2022-11-30T20:24:27.336Z,78.72
2022-11-30T20:27:06.702Z,76.88
2022-11-30T20:29:36.646Z,75.97
2022-11-30T20:32:03.556Z,70.60
2022-11-30T20:34:34.624Z,67.57
2022-11-30T20:37:02.710Z,65.85
2022-11-30T20:39:29.538Z,72.05
2022-11-30T20:41:56.544Z,60.45
2022-11-30T20:44:23.398Z,69.80
2022-11-30T20:46:50.253Z,67.57
2022-11-30T20:49:24.451Z,61.75
2022-11-30T20:51:54.327Z,48.80
2022-11-30T20:54:21.186Z,66.53
2022-11-30T20:56:51.139Z,69.45
2022-11-30T20:59:23.884Z,70.45
2022-11-30T21:01:51.148Z,68.00
2022-11-30T21:04:18.092Z,69.57
2022-11-30T21:06:47.982Z,73.20
2022-11-30T21:09:17.147Z,61.80
2022-11-30T21:11:44.352Z,67.88
2022-11-30T21:14:11.604Z,66.13
2022-11-30T21:16:39.178Z,71.88
2022-11-30T21:19:06.067Z,74.20
2022-11-30T21:21:37.135Z,75.18
2022-11-30T21:24:08.990Z,84.00
2022-11-30T21:26:43.661Z,74.22
2022-11-30T21:29:14.434Z,79.75
2022-11-30T21:31:41.706Z,81.45
2022-11-30T21:34:10.830Z,82.45
2022-11-30T21:36:41.860Z,80.78
2022-11-30T21:39:10.155Z,77.03
2022-11-30T21:41:41.777Z,93.18
2022-11-30T21:44:12.783Z,92.47
2022-11-30T21:46:40.544Z,88.13
2022-11-30T21:49:11.218Z,101.03
2022-11-30T21:51:38.189Z,92.28
2022-11-30T21:54:08.182Z,96.15
2022-11-30T21:56:37.582Z,90.13
2022-11-30T21:59:06.367Z,93.70
2022-11-30T22:01:38.467Z,82.90
2022-11-30T22:04:06.818Z,89.25
2022-11-30T22:06:35.772Z,79.28
2022-11-30T22:09:08.567Z,85.28
2022-11-30T22:11:38.995Z,86.47
2022-11-30T22:14:06.945Z,81.07
2022-11-30T22:16:37.277Z,81.20
2022-11-30T22:19:05.644Z,76.90
2022-11-30T22:21:33.599Z,86.47
2022-11-30T22:24:06.008Z,85.60
2022-11-30T22:26:38.726Z,79.95
2022-11-30T22:29:13.798Z,79.80
2022-11-30T22:34:08.990Z,79.40
2022-11-30T22:36:38.043Z,77.32
2022-11-30T22:39:20.091Z,79.20
2022-11-30T22:41:54.228Z,75.57
2022-11-30T22:44:22.235Z,77.90
2022-11-30T22:46:49.200Z,69.80
2022-11-30T22:49:21.284Z,73.78
2022-11-30T22:51:49.100Z,71.15
2022-11-30T22:54:15.913Z,68.63
2022-11-30T22:56:42.834Z,67.55
2022-11-30T22:59:13.486Z,74.28
2022-11-30T23:01:45.590Z,78.35
2022-11-30T23:04:15.791Z,76.30
2022-11-30T23:06:43.919Z,78.07
2022-11-30T23:09:13.718Z,84.25
2022-11-30T23:11:41.204Z,82.50
2022-11-30T23:14:08.973Z,90.75
2022-11-30T23:16:36.791Z,88.80
2022-11-30T23:19:04.312Z,83.97
2022-11-30T23:21:40.378Z,86.60
2022-11-30T23:24:11.986Z,88.07
2022-11-30T23:26:39.328Z,86.05
2022-11-30T23:29:09.902Z,90.43
2022-11-30T23:31:38.877Z,107.32
2022-11-30T23:34:08.437Z,110.35
2022-11-30T23:36:35.818Z,108.90
2022-11-30T23:39:06.477Z,112.60
2022-11-30T23:41:33.378Z,105.90
2022-11-30T23:44:00.640Z,127.40
2022-11-30T23:46:27.567Z,111.55
2022-11-30T23:48:55.625Z,109.45
2022-11-30T23:51:23.469Z,124.63
2022-11-30T23:53:50.333Z,125.82
2022-11-30T23:56:19.473Z,122.65
2022-11-30T23:58:46.388Z,117.80
